createdAt,value
2018-10-11T00:00:40.480Z,10.70
2018-10-11T00:03:09.079Z,10.70
2018-10-11T00:05:37.544Z,10.70
2018-10-11T00:08:05.801Z,10.50
2018-10-11T00:10:34.094Z,10.50
2018-10-11T00:13:02.353Z,10.60
2018-10-11T00:15:30.721Z,10.60
2018-10-11T00:17:58.964Z,10.70
2018-10-11T00:20:27.272Z,10.60
2018-10-11T00:22:55.686Z,10.20
2018-10-11T00:25:23.993Z,10.10
2018-10-11T00:27:52.273Z,10.10
2018-10-11T00:30:20.569Z,10.10
2018-10-11T00:32:48.867Z,10.20
2018-10-11T00:35:17.207Z,10.40
2018-10-11T00:37:45.488Z,10.20
2018-10-11T00:40:13.768Z,10.20
2018-10-11T00:42:42.022Z,10.40
2018-10-11T00:45:10.311Z,10.50
2018-10-11T00:47:38.565Z,10.60
2018-10-11T00:50:06.816Z,10.60
2018-10-11T00:52:35.752Z,10.60
2018-10-11T00:55:04.044Z,10.50
2018-10-11T00:57:32.321Z,10.20
2018-10-11T01:00:00.618Z,10.30
2018-10-11T01:02:28.884Z,10.50
2018-10-11T01:04:57.206Z,10.50
2018-10-11T01:07:25.472Z,10.50
2018-10-11T01:09:53.808Z,10.30
2018-10-11T01:12:22.109Z,10.30
2018-10-11T01:14:50.429Z,10.40
2018-10-11T01:17:18.783Z,10.50
2018-10-11T01:19:47.465Z,10.50
2018-10-11T01:22:15.760Z,10.40
2018-10-11T01:24:44.078Z,10.20
2018-10-11T01:27:12.377Z,10.10
2018-10-11T01:29:40.665Z,10.10
2018-10-11T01:32:08.995Z,10.00
2018-10-11T01:34:37.323Z,10.20
2018-10-11T01:37:05.637Z,10.10
2018-10-11T01:39:33.915Z,10.10
2018-10-11T01:42:02.222Z,10.20
2018-10-11T01:44:30.526Z,10.20
2018-10-11T01:46:59.180Z,10.20
2018-10-11T01:49:27.500Z,10.10
2018-10-11T01:51:55.837Z,10.00
2018-10-11T01:54:24.113Z,10.00
2018-10-11T01:56:52.565Z,10.00
2018-10-11T01:59:20.804Z,10.10
2018-10-11T02:01:49.107Z,10.20
2018-10-11T02:04:17.403Z,10.30
2018-10-11T02:06:45.732Z,10.40
2018-10-11T02:09:14.021Z,10.50
2018-10-11T02:11:42.443Z,10.50
2018-10-11T02:14:10.727Z,10.40
2018-10-11T02:16:39.012Z,10.50
2018-10-11T02:19:07.311Z,10.60
2018-10-11T02:21:35.605Z,10.70
2018-10-11T02:24:03.887Z,10.70
2018-10-11T02:26:32.180Z,10.80
2018-10-11T02:29:00.765Z,10.80
2018-10-11T02:31:29.045Z,10.80
2018-10-11T02:33:57.352Z,10.60
2018-10-11T02:36:25.688Z,10.70
2018-10-11T02:38:53.982Z,10.80
2018-10-11T02:41:22.303Z,10.90
2018-10-11T02:43:50.653Z,10.80
2018-10-11T02:46:18.968Z,10.80
2018-10-11T02:48:47.273Z,10.80
2018-10-11T02:51:15.602Z,10.80
2018-10-11T02:53:43.926Z,10.80
2018-10-11T02:56:12.234Z,10.80
2018-10-11T02:59:55.697Z,10.80
2018-10-11T03:02:24.506Z,10.80
2018-10-11T03:04:53.181Z,10.70
2018-10-11T03:07:21.508Z,10.60
2018-10-11T03:09:49.818Z,10.60
2018-10-11T03:12:18.096Z,10.60
2018-10-11T03:14:46.374Z,10.50
2018-10-11T03:17:14.695Z,10.50
2018-10-11T03:19:43.524Z,10.50
2018-10-11T03:22:12.318Z,10.50
2018-10-11T03:24:41.817Z,10.50
2018-10-11T03:27:10.154Z,10.40
2018-10-11T03:29:38.489Z,10.40
2018-10-11T03:32:07.084Z,10.40
2018-10-11T03:34:35.691Z,10.40
2018-10-11T03:37:04.008Z,10.40
2018-10-11T03:39:32.287Z,10.30
2018-10-11T03:42:00.567Z,10.30
2018-10-11T03:44:29.306Z,10.40
2018-10-11T03:46:57.613Z,10.30
2018-10-11T03:49:26.265Z,10.30
2018-10-11T03:51:54.556Z,10.30
2018-10-11T03:54:23.042Z,10.30
2018-10-11T03:56:51.296Z,10.30
2018-10-11T03:59:19.682Z,10.40
2018-10-11T04:01:47.996Z,10.40
2018-10-11T04:04:16.594Z,10.40
2018-10-11T04:06:44.907Z,10.40
2018-10-11T04:09:13.255Z,10.40
2018-10-11T04:11:41.920Z,10.40
2018-10-11T04:14:10.224Z,10.40
2018-10-11T04:16:38.491Z,10.40
2018-10-11T04:19:06.950Z,10.50
2018-10-11T04:21:35.236Z,10.50
2018-10-11T04:24:03.528Z,10.40
2018-10-11T04:26:31.799Z,10.50
2018-10-11T04:29:00.072Z,10.50
2018-10-11T04:31:28.287Z,10.50
2018-10-11T04:33:56.534Z,10.50
2018-10-11T04:36:25.308Z,10.50
2018-10-11T04:38:53.578Z,10.40
2018-10-11T04:41:21.859Z,10.40
2018-10-11T04:43:50.174Z,10.30
2018-10-11T04:46:18.409Z,10.30
2018-10-11T04:48:46.659Z,10.30
2018-10-11T04:51:14.963Z,10.30
2018-10-11T04:53:43.278Z,10.20
2018-10-11T04:56:11.945Z,10.30
2018-10-11T04:58:40.191Z,10.30
2018-10-11T05:01:08.475Z,10.30
2018-10-11T05:03:36.743Z,10.30
2018-10-11T05:06:05.085Z,10.30
2018-10-11T05:08:33.386Z,10.30
2018-10-11T05:11:02.193Z,10.30
2018-10-11T05:13:39.508Z,10.20
2018-10-11T05:16:07.787Z,10.10
2018-10-11T05:18:38.059Z,10.10
2018-10-11T05:21:06.578Z,10.10
2018-10-11T05:23:34.859Z,10.00
2018-10-11T05:26:03.187Z,10.10
2018-10-11T05:28:31.374Z,10.10
2018-10-11T05:31:00.708Z,10.10
2018-10-11T05:33:29.858Z,10.10
2018-10-11T05:35:58.134Z,10.10
2018-10-11T05:38:26.468Z,10.10
2018-10-11T05:40:54.812Z,10.10
2018-10-11T05:43:23.114Z,10.10
2018-10-11T05:45:55.285Z,10.10
2018-10-11T05:48:24.402Z,10.10
2018-10-11T05:50:52.727Z,10.10
2018-10-11T05:53:21.022Z,10.10
2018-10-11T05:55:49.627Z,10.10
2018-10-11T05:58:18.448Z,10.10
2018-10-11T06:00:46.740Z,10.10
2018-10-11T06:03:15.063Z,10.10
2018-10-11T06:05:43.307Z,10.20
2018-10-11T06:08:11.604Z,10.20
2018-10-11T06:10:41.639Z,10.20
2018-10-11T06:13:10.463Z,10.20
2018-10-11T06:15:38.865Z,10.20
2018-10-11T06:18:07.252Z,10.20
2018-10-11T06:20:35.936Z,10.30
2018-10-11T06:23:04.453Z,10.30
2018-10-11T06:25:32.763Z,10.20
2018-10-11T06:28:01.031Z,10.30
2018-10-11T06:30:30.708Z,10.20
2018-10-11T06:32:58.928Z,10.20
2018-10-11T06:35:27.448Z,10.30
2018-10-11T06:37:55.680Z,10.30
2018-10-11T06:40:23.927Z,10.30
2018-10-11T06:42:52.506Z,10.40
2018-10-11T06:45:20.725Z,10.40
2018-10-11T06:47:52.040Z,10.40
2018-10-11T06:50:20.545Z,10.40
2018-10-11T06:52:48.726Z,10.40
2018-10-11T06:55:16.992Z,10.30
2018-10-11T06:57:45.242Z,10.30
2018-10-11T07:00:13.481Z,10.30
2018-10-11T07:02:41.772Z,10.50
2018-10-11T07:05:09.993Z,10.50
2018-10-11T07:07:44.945Z,10.60
2018-10-11T07:10:14.755Z,10.60
2018-10-11T07:12:43.147Z,10.60
2018-10-11T07:15:11.372Z,10.60
2018-10-11T07:17:39.659Z,10.70
2018-10-11T07:20:07.914Z,10.80
2018-10-11T07:22:36.170Z,10.80
2018-10-11T07:25:04.748Z,10.90
2018-10-11T07:27:32.985Z,11.00
2018-10-11T07:30:01.244Z,11.10
2018-10-11T07:32:29.609Z,11.20
2018-10-11T07:34:57.913Z,11.30
2018-10-11T07:37:26.077Z,11.50
2018-10-11T07:39:54.342Z,11.60
2018-10-11T07:42:22.581Z,11.70
2018-10-11T07:44:50.880Z,11.90
2018-10-11T07:47:19.137Z,12.00
2018-10-11T07:49:47.378Z,12.10
2018-10-11T07:52:15.611Z,12.20
2018-10-11T07:54:43.846Z,12.30
2018-10-11T07:57:12.058Z,12.40
2018-10-11T07:59:40.289Z,12.50
2018-10-11T08:02:08.518Z,12.60
2018-10-11T08:04:37.054Z,12.70
2018-10-11T08:07:05.644Z,12.80
2018-10-11T08:09:33.921Z,12.80
2018-10-11T08:12:02.351Z,12.90
2018-10-11T08:14:30.415Z,13.00
2018-10-11T08:16:58.782Z,13.10
2018-10-11T08:19:27.094Z,13.20
2018-10-11T08:21:55.168Z,13.30
2018-10-11T08:24:23.447Z,13.30
2018-10-11T08:26:51.735Z,13.40
2018-10-11T08:29:19.907Z,13.50
2018-10-11T08:31:48.143Z,13.60
2018-10-11T08:34:16.359Z,13.70
2018-10-11T08:36:44.648Z,13.80
2018-10-11T08:39:16.542Z,13.90
2018-10-11T08:41:44.763Z,14.00
2018-10-11T08:44:13.640Z,14.10
2018-10-11T08:46:41.997Z,14.10
2018-10-11T08:49:10.314Z,14.20
2018-10-11T08:51:38.673Z,14.20
2018-10-11T08:54:12.317Z,14.20
2018-10-11T08:56:40.599Z,14.20
2018-10-11T08:59:08.893Z,14.20
2018-10-11T09:01:37.507Z,14.30
2018-10-11T09:04:06.310Z,14.30
2018-10-11T09:06:34.494Z,14.30
2018-10-11T09:09:02.780Z,14.30
2018-10-11T09:11:31.129Z,14.30
2018-10-11T09:13:59.337Z,14.30
2018-10-11T09:16:27.606Z,14.40
2018-10-11T09:18:56.142Z,14.40
2018-10-11T09:21:24.394Z,14.40
2018-10-11T09:23:53.291Z,14.30
2018-10-11T09:26:21.547Z,14.30
2018-10-11T09:28:49.886Z,14.40
2018-10-11T09:31:18.168Z,14.40
2018-10-11T09:33:46.467Z,14.40
2018-10-11T09:36:14.731Z,14.40
2018-10-11T09:38:43.224Z,14.40
2018-10-11T09:41:11.705Z,14.50
2018-10-11T09:43:40.025Z,14.50
2018-10-11T09:46:09.291Z,14.60
2018-10-11T09:48:37.624Z,14.60
2018-10-11T09:51:06.172Z,14.70
2018-10-11T09:53:34.479Z,14.70
2018-10-11T09:56:02.806Z,14.60
2018-10-11T09:58:31.114Z,14.60
2018-10-11T10:01:04.909Z,14.70
2018-10-11T10:03:34.474Z,14.70
2018-10-11T10:06:03.137Z,14.70
2018-10-11T10:08:31.825Z,14.80
2018-10-11T10:11:00.193Z,14.90
2018-10-11T10:13:28.467Z,14.90
2018-10-11T10:15:56.757Z,15.00
2018-10-11T10:18:25.337Z,14.90
2018-10-11T10:20:54.003Z,14.90
2018-10-11T10:23:22.654Z,14.90
2018-10-11T10:25:50.949Z,14.90
2018-10-11T10:28:19.192Z,14.90
2018-10-11T10:30:53.661Z,14.90
2018-10-11T10:33:23.067Z,14.90
2018-10-11T10:35:51.384Z,14.90
2018-10-11T10:38:20.224Z,15.00
2018-10-11T10:40:49.320Z,15.00
2018-10-11T10:43:17.614Z,15.10
2018-10-11T10:45:45.848Z,15.10
2018-10-11T10:48:14.128Z,15.00
2018-10-11T10:50:42.379Z,15.10
2018-10-11T10:53:10.619Z,15.10
2018-10-11T10:55:38.960Z,15.10
2018-10-11T10:58:07.249Z,15.20
2018-10-11T11:00:35.538Z,15.30
2018-10-11T11:03:03.814Z,15.30
2018-10-11T11:05:32.081Z,15.30
2018-10-11T11:08:00.547Z,15.30
2018-10-11T11:10:28.812Z,15.40
2018-10-11T11:12:57.063Z,15.40
2018-10-11T11:15:25.412Z,15.40
2018-10-11T11:17:53.648Z,15.50
2018-10-11T11:20:21.960Z,15.50
2018-10-11T11:22:50.209Z,15.50
2018-10-11T11:25:18.556Z,15.60
2018-10-11T11:27:46.791Z,15.60
2018-10-11T11:30:15.072Z,15.70
2018-10-11T11:32:43.683Z,15.80
2018-10-11T11:35:11.949Z,15.80
2018-10-11T11:37:40.243Z,15.70
2018-10-11T11:40:08.605Z,15.80
2018-10-11T11:42:37.123Z,15.90
2018-10-11T11:45:05.831Z,15.90
2018-10-11T11:47:34.116Z,15.90
2018-10-11T11:50:02.375Z,16.00
2018-10-11T11:52:30.655Z,16.10
2018-10-11T11:54:59.322Z,16.20
2018-10-11T11:57:27.841Z,16.20
2018-10-11T11:59:56.120Z,16.30
2018-10-11T12:02:24.410Z,16.30
2018-10-11T12:04:52.673Z,16.30
2018-10-11T12:07:20.927Z,16.20
2018-10-11T12:09:49.183Z,16.30
2018-10-11T12:12:55.651Z,16.20
2018-10-11T12:15:25.102Z,16.30
2018-10-11T12:17:54.780Z,16.30
2018-10-11T12:20:24.913Z,16.40
2018-10-11T12:22:53.996Z,16.50
2018-10-11T12:25:22.339Z,16.40
2018-10-11T12:27:50.651Z,16.40
2018-10-11T12:30:18.945Z,16.60
2018-10-11T12:32:47.535Z,16.60
2018-10-11T12:35:17.154Z,16.60
2018-10-11T12:37:45.650Z,16.70
2018-10-11T12:40:14.154Z,16.80
2018-10-11T12:42:42.732Z,16.80
2018-10-11T12:45:11.870Z,16.90
2018-10-11T12:47:40.617Z,16.70
2018-10-11T12:50:09.889Z,16.80
2018-10-11T12:52:38.121Z,16.80
2018-10-11T12:55:06.699Z,16.70
2018-10-11T12:57:35.478Z,16.80
2018-10-11T13:00:03.832Z,16.70
2018-10-11T13:02:33.104Z,16.80
2018-10-11T13:05:01.450Z,16.80
2018-10-11T13:07:30.498Z,16.80
2018-10-11T13:09:58.735Z,16.80
2018-10-11T13:12:27.009Z,16.80
2018-10-11T13:14:55.328Z,16.70
2018-10-11T13:17:24.039Z,16.70
2018-10-11T13:19:52.348Z,16.80
2018-10-11T13:22:21.030Z,16.80
2018-10-11T13:24:49.679Z,16.90
2018-10-11T13:27:17.966Z,17.20
2018-10-11T13:29:46.503Z,17.30
2018-10-11T13:32:14.801Z,17.50
2018-10-11T13:34:43.170Z,17.50
2018-10-11T13:37:11.455Z,17.60
2018-10-11T13:39:46.081Z,17.70
2018-10-11T13:42:09.904Z,17.80
2018-10-11T13:44:38.256Z,18.00
2018-10-11T13:47:06.584Z,18.10
2018-10-11T13:49:35.078Z,18.50
2018-10-11T13:52:04.038Z,18.80
2018-10-11T13:54:32.739Z,18.90
2018-10-11T13:57:02.894Z,19.00
2018-10-11T13:59:29.970Z,19.10
2018-10-11T14:01:58.449Z,19.20
2018-10-11T14:04:26.845Z,19.10
2018-10-11T14:06:55.426Z,19.00
2018-10-11T14:09:23.960Z,19.00
2018-10-11T14:11:52.319Z,19.10
2018-10-11T14:14:20.623Z,19.00
2018-10-11T14:16:49.371Z,18.90
2018-10-11T14:19:17.996Z,18.90
2018-10-11T14:21:46.584Z,18.90
2018-10-11T14:24:15.223Z,18.90
2018-10-11T14:26:43.972Z,18.80
2018-10-11T14:29:12.274Z,18.90
2018-10-11T14:31:40.573Z,18.60
2018-10-11T14:34:09.355Z,18.60
2018-10-11T14:36:37.767Z,18.50
2018-10-11T14:39:07.269Z,18.50
2018-10-11T14:41:35.672Z,18.50
2018-10-11T14:44:04.529Z,18.70
2018-10-11T14:46:32.781Z,18.70
2018-10-11T14:49:01.427Z,18.70
2018-10-11T14:51:29.817Z,18.80
2018-10-11T14:53:59.721Z,18.90
2018-10-11T14:56:27.895Z,18.90
2018-10-11T14:58:56.219Z,18.70
2018-10-11T15:01:25.553Z,18.60
2018-10-11T15:03:53.818Z,18.60
2018-10-11T15:06:22.142Z,18.50
2018-10-11T15:08:50.423Z,18.50
2018-10-11T15:11:18.761Z,18.60
2018-10-11T15:13:46.939Z,18.40
2018-10-11T15:16:15.239Z,18.40
2018-10-11T15:18:43.496Z,18.50
2018-10-11T15:21:11.789Z,18.50
2018-10-11T15:23:40.078Z,18.50
2018-10-11T15:26:08.460Z,18.60
2018-10-11T15:28:36.767Z,18.70
2018-10-11T15:31:06.566Z,18.80
2018-10-11T15:33:34.835Z,18.90
2018-10-11T15:36:04.545Z,18.80
2018-10-11T15:38:32.852Z,19.00
2018-10-11T15:41:01.166Z,18.90
2018-10-11T15:43:29.499Z,18.90
2018-10-11T15:45:57.747Z,18.80
2018-10-11T15:48:26.400Z,18.70
2018-10-11T15:50:54.677Z,18.80
2018-10-11T15:53:22.967Z,18.80
2018-10-11T15:55:51.218Z,18.80
2018-10-11T15:58:19.561Z,18.70
2018-10-11T16:00:47.810Z,18.70
2018-10-11T16:03:16.320Z,18.60
2018-10-11T16:05:44.637Z,18.60
2018-10-11T16:08:12.907Z,18.60
2018-10-11T16:10:41.287Z,18.50
2018-10-11T16:13:09.514Z,18.40
2018-10-11T16:15:37.774Z,18.40
2018-10-11T16:18:06.043Z,18.40
2018-10-11T16:20:34.286Z,18.40
2018-10-11T16:23:02.858Z,18.40
2018-10-11T16:25:31.156Z,18.40
2018-10-11T16:27:59.828Z,18.30
2018-10-11T16:30:28.149Z,18.20
2018-10-11T16:32:56.405Z,18.20
2018-10-11T16:35:25.071Z,18.20
2018-10-11T16:37:53.331Z,18.10
2018-10-11T16:40:22.348Z,18.10
2018-10-11T16:42:51.039Z,18.00
2018-10-11T16:45:19.331Z,18.00
2018-10-11T16:47:47.663Z,18.00
2018-10-11T16:50:15.966Z,17.90
2018-10-11T16:52:44.258Z,17.80
2018-10-11T16:55:12.804Z,17.80
2018-10-11T16:57:41.143Z,17.70
2018-10-11T17:00:09.479Z,17.70
2018-10-11T17:02:38.525Z,17.60
2018-10-11T17:05:06.914Z,17.50
2018-10-11T17:07:35.196Z,17.50
2018-10-11T17:10:03.621Z,17.40
2018-10-11T17:12:32.268Z,17.40
2018-10-11T17:15:00.540Z,17.40
2018-10-11T17:17:29.040Z,17.40
2018-10-11T17:19:57.671Z,17.30
2018-10-11T17:22:25.899Z,17.30
2018-10-11T17:24:54.202Z,17.20
2018-10-11T17:27:22.544Z,17.20
2018-10-11T17:29:50.889Z,17.10
2018-10-11T17:32:19.124Z,17.10
2018-10-11T17:34:47.391Z,17.10
2018-10-11T17:37:16.014Z,17.00
2018-10-11T17:39:44.321Z,17.00
2018-10-11T17:42:13.348Z,16.90
2018-10-11T17:44:42.009Z,16.70
2018-10-11T17:47:10.286Z,16.60
2018-10-11T17:49:38.559Z,16.60
2018-10-11T17:52:06.848Z,16.50
2018-10-11T17:54:35.155Z,16.50
2018-10-11T17:57:03.444Z,16.40
2018-10-11T17:59:32.109Z,16.40
2018-10-11T18:02:00.424Z,16.30
2018-10-11T18:04:28.743Z,16.20
2018-10-11T18:06:56.975Z,16.20
2018-10-11T18:09:25.327Z,16.00
2018-10-11T18:11:53.635Z,16.00
2018-10-11T18:14:21.995Z,16.00
2018-10-11T18:16:50.612Z,15.90
2018-10-11T18:19:19.268Z,15.80
2018-10-11T18:21:47.623Z,15.60
2018-10-11T18:24:15.854Z,15.60
2018-10-11T18:26:44.219Z,15.60
2018-10-11T18:29:12.516Z,15.60
2018-10-11T18:31:40.757Z,15.50
2018-10-11T18:34:09.040Z,15.40
2018-10-11T18:36:37.314Z,15.40
2018-10-11T18:39:10.604Z,15.30
2018-10-11T18:41:39.116Z,15.30
2018-10-11T18:44:07.738Z,15.40
2018-10-11T18:46:36.077Z,15.40
2018-10-11T18:49:04.646Z,15.40
2018-10-11T18:51:32.906Z,15.30
2018-10-11T18:54:01.200Z,15.30
2018-10-11T18:56:29.519Z,15.40
2018-10-11T18:58:57.915Z,15.30
2018-10-11T19:01:26.181Z,15.30
2018-10-11T19:03:54.448Z,15.30
2018-10-11T19:06:22.809Z,15.40
2018-10-11T19:08:51.045Z,15.30
2018-10-11T19:11:19.685Z,15.40
2018-10-11T19:13:47.999Z,15.40
2018-10-11T19:16:16.292Z,15.30
2018-10-11T19:18:44.667Z,15.30
2018-10-11T19:21:13.025Z,15.40
2018-10-11T19:23:41.614Z,15.30
2018-10-11T19:26:09.921Z,15.20
2018-10-11T19:28:38.174Z,15.30
2018-10-11T19:31:06.508Z,15.30
2018-10-11T19:33:34.777Z,15.30
2018-10-11T19:36:03.051Z,15.20
2018-10-11T19:38:31.627Z,15.20
2018-10-11T19:40:59.908Z,15.30
2018-10-11T19:43:28.181Z,15.30
2018-10-11T19:45:56.430Z,15.30
2018-10-11T19:48:24.698Z,15.30
2018-10-11T19:50:52.965Z,15.10
2018-10-11T19:53:21.237Z,15.10
2018-10-11T19:55:49.490Z,15.20
2018-10-11T19:58:17.798Z,15.30
2018-10-11T20:00:46.063Z,15.20
2018-10-11T20:03:14.346Z,15.10
2018-10-11T20:05:42.574Z,15.10
2018-10-11T20:08:11.285Z,15.00
2018-10-11T20:10:39.675Z,15.00
2018-10-11T20:13:07.981Z,15.10
2018-10-11T20:15:36.248Z,15.20
2018-10-11T20:18:04.907Z,15.20
2018-10-11T20:20:33.169Z,15.20
2018-10-11T20:23:01.565Z,15.20
2018-10-11T20:25:30.093Z,15.20
2018-10-11T20:27:58.343Z,15.20
2018-10-11T20:30:26.666Z,15.20
2018-10-11T20:32:54.957Z,15.20
2018-10-11T20:35:23.218Z,15.10
2018-10-11T20:37:51.462Z,15.10
2018-10-11T20:40:19.969Z,15.10
2018-10-11T20:42:48.564Z,15.10
2018-10-11T20:45:16.879Z,15.00
2018-10-11T20:47:45.437Z,15.00
2018-10-11T20:50:13.774Z,15.10
2018-10-11T20:52:42.401Z,15.00
2018-10-11T20:55:10.690Z,15.10
2018-10-11T20:57:38.989Z,15.00
2018-10-11T21:00:07.847Z,15.00
2018-10-11T21:02:36.114Z,15.00
2018-10-11T21:05:04.454Z,15.00
2018-10-11T21:07:33.718Z,15.00
2018-10-11T21:10:02.213Z,14.90
2018-10-11T21:12:30.806Z,14.90
2018-10-11T21:14:59.064Z,14.80
2018-10-11T21:17:27.415Z,14.80
2018-10-11T21:19:55.699Z,14.80
2018-10-11T21:22:23.966Z,14.80
2018-10-11T21:24:52.235Z,14.80
2018-10-11T21:27:20.491Z,14.80
2018-10-11T21:29:48.775Z,14.80
2018-10-11T21:32:17.341Z,14.90
2018-10-11T21:34:45.626Z,14.70
2018-10-11T21:37:14.016Z,14.70
2018-10-11T21:39:42.366Z,14.70
2018-10-11T21:42:10.773Z,14.60
2018-10-11T21:44:39.030Z,14.70
2018-10-11T21:47:10.551Z,14.60
2018-10-11T21:49:38.991Z,14.70
2018-10-11T21:52:07.804Z,14.60
2018-10-11T21:54:36.048Z,14.60
2018-10-11T21:57:04.304Z,14.60
2018-10-11T21:59:32.568Z,14.60
2018-10-11T22:02:00.779Z,14.60
2018-10-11T22:04:29.439Z,14.60
2018-10-11T22:06:57.981Z,14.50
2018-10-11T22:09:26.984Z,14.50
2018-10-11T22:11:55.271Z,14.40
2018-10-11T22:14:23.784Z,14.40
2018-10-11T22:16:52.069Z,14.50
2018-10-11T22:19:20.370Z,14.50
2018-10-11T22:21:48.604Z,14.40
2018-10-11T22:24:16.905Z,14.40
2018-10-11T22:26:45.572Z,14.30
2018-10-11T22:29:13.840Z,14.30
2018-10-11T22:31:42.114Z,14.40
2018-10-11T22:34:10.342Z,14.40
2018-10-11T22:36:38.627Z,14.40
2018-10-11T22:39:08.700Z,14.30
2018-10-11T22:41:37.835Z,14.20
2018-10-11T22:44:06.130Z,14.20
2018-10-11T22:46:34.411Z,14.10
2018-10-11T22:49:02.980Z,14.20
2018-10-11T22:51:31.273Z,14.20
2018-10-11T22:53:59.528Z,14.20
2018-10-11T22:56:27.789Z,14.20
2018-10-11T22:58:56.022Z,14.30
2018-10-11T23:01:24.311Z,14.30
2018-10-11T23:03:52.611Z,14.30
2018-10-11T23:06:20.925Z,14.20
2018-10-11T23:08:49.197Z,14.20
2018-10-11T23:11:17.433Z,14.20
2018-10-11T23:13:45.673Z,14.20
2018-10-11T23:16:13.934Z,14.20
2018-10-11T23:18:42.494Z,14.10
2018-10-11T23:21:11.332Z,14.00
2018-10-11T23:23:39.638Z,13.90
2018-10-11T23:26:07.950Z,13.90
2018-10-11T23:28:36.178Z,13.90
2018-10-11T23:31:04.478Z,13.80
2018-10-11T23:33:33.043Z,13.80
2018-10-11T23:36:01.431Z,13.80
2018-10-11T23:38:29.737Z,13.80
2018-10-11T23:40:58.004Z,13.80
2018-10-11T23:43:26.293Z,13.80
2018-10-11T23:45:54.544Z,13.80
2018-10-11T23:48:22.841Z,13.90
2018-10-11T23:50:51.081Z,13.80
2018-10-11T23:53:19.346Z,13.90
2018-10-11T23:55:47.618Z,13.90
2018-10-11T23:58:15.860Z,13.80
